createdAt,value
2019-06-08T00:02:46.097Z,77.50
2019-06-08T00:05:34.536Z,77.90
2019-06-08T00:08:24.224Z,78.00
2019-06-08T00:11:12.851Z,78.30
2019-06-08T00:14:01.358Z,78.90
2019-06-08T00:16:50.152Z,78.80
2019-06-08T00:19:38.937Z,78.40
2019-06-08T00:22:27.251Z,78.20
2019-06-08T00:25:15.936Z,77.90
2019-06-08T00:28:05.389Z,77.80
2019-06-08T00:30:53.780Z,77.50
2019-06-08T00:33:42.303Z,77.40
2019-06-08T00:36:30.770Z,76.70
2019-06-08T00:39:19.280Z,76.90
2019-06-08T00:42:07.775Z,76.90
2019-06-08T00:44:56.391Z,77.00
2019-06-08T00:47:48.051Z,77.30
2019-06-08T00:50:35.128Z,77.20
2019-06-08T00:53:23.475Z,77.50
2019-06-08T00:56:12.229Z,77.70
2019-06-08T00:59:00.719Z,78.20
2019-06-08T01:01:50.299Z,78.10
2019-06-08T01:04:38.648Z,78.60
2019-06-08T01:07:27.066Z,79.10
2019-06-08T01:10:16.026Z,79.50
2019-06-08T01:13:04.760Z,79.00
2019-06-08T01:15:55.414Z,78.40
2019-06-08T01:18:43.800Z,79.20
2019-06-08T01:21:32.271Z,79.10
2019-06-08T01:24:21.603Z,79.20
2019-06-08T01:27:10.180Z,79.50
2019-06-08T01:29:59.052Z,79.00
2019-06-08T01:32:47.824Z,78.90
2019-06-08T01:35:36.303Z,79.20
2019-06-08T01:38:25.133Z,79.90
2019-06-08T01:41:13.631Z,79.40
2019-06-08T01:44:02.554Z,79.40
2019-06-08T01:46:50.960Z,79.50
2019-06-08T01:49:39.714Z,79.30
2019-06-08T01:52:28.876Z,79.20
2019-06-08T01:55:17.595Z,79.40
2019-06-08T01:58:06.467Z,79.10
2019-06-08T02:00:54.993Z,78.70
2019-06-08T02:03:43.374Z,78.20
2019-06-08T02:06:32.449Z,78.50
2019-06-08T02:09:21.307Z,78.90
2019-06-08T02:12:10.196Z,79.00
2019-06-08T02:14:58.405Z,79.10
2019-06-08T02:17:46.901Z,79.40
2019-06-08T02:20:35.428Z,79.70
2019-06-08T02:23:23.905Z,80.00
2019-06-08T02:26:12.770Z,79.90
2019-06-08T02:29:01.583Z,79.60
2019-06-08T02:31:50.029Z,79.90
2019-06-08T02:34:38.631Z,80.20
2019-06-08T02:37:28.677Z,80.50
2019-06-08T02:40:17.775Z,80.60
2019-06-08T02:43:06.565Z,80.30
2019-06-08T02:45:55.251Z,80.00
2019-06-08T02:49:02.270Z,79.90
2019-06-08T02:51:34.337Z,80.00
2019-06-08T02:54:23.786Z,79.90
2019-06-08T02:57:14.882Z,80.30
2019-06-08T03:00:04.177Z,80.30
2019-06-08T03:02:54.031Z,80.70
2019-06-08T03:05:43.308Z,81.30
2019-06-08T03:08:38.573Z,81.30
2019-06-08T03:11:27.159Z,80.80
2019-06-08T03:14:18.017Z,80.40
2019-06-08T03:17:06.633Z,79.70
2019-06-08T03:19:55.444Z,79.50
2019-06-08T03:22:44.353Z,79.50
2019-06-08T03:25:41.635Z,79.70
2019-06-08T03:28:23.091Z,79.50
2019-06-08T03:31:11.708Z,79.60
2019-06-08T03:34:00.228Z,79.80
2019-06-08T03:36:55.859Z,79.90
2019-06-08T03:39:39.039Z,80.10
2019-06-08T03:42:27.310Z,80.10
2019-06-08T03:45:15.747Z,79.70
2019-06-08T03:48:04.128Z,79.80
2019-06-08T03:50:52.544Z,79.20
2019-06-08T03:53:42.626Z,78.50
2019-06-08T03:56:31.401Z,78.30
2019-06-08T03:59:19.770Z,78.20
2019-06-08T04:02:08.374Z,77.80
2019-06-08T04:04:56.873Z,78.30
2019-06-08T04:07:46.431Z,78.20
2019-06-08T04:10:37.621Z,78.20
2019-06-08T04:13:26.325Z,78.10
2019-06-08T04:16:14.899Z,78.30
2019-06-08T04:19:03.621Z,78.30
2019-06-08T04:21:52.385Z,78.30
2019-06-08T04:24:42.307Z,78.50
2019-06-08T04:27:31.196Z,78.00
2019-06-08T04:30:19.954Z,78.00
2019-06-08T04:33:08.422Z,77.70
2019-06-08T04:35:57.057Z,78.00
2019-06-08T04:38:46.171Z,78.10
2019-06-08T04:41:35.823Z,77.50
2019-06-08T04:44:24.255Z,77.50
2019-06-08T04:47:15.489Z,77.60
2019-06-08T04:50:21.758Z,77.70
2019-06-08T04:52:55.961Z,77.80
2019-06-08T04:55:45.158Z,77.40
2019-06-08T04:58:34.440Z,77.60
2019-06-08T05:01:24.211Z,77.80
2019-06-08T05:04:12.633Z,77.90
2019-06-08T05:07:01.448Z,77.80
2019-06-08T05:09:50.642Z,78.10
2019-06-08T05:12:39.279Z,77.80
2019-06-08T05:15:28.042Z,78.10
2019-06-08T05:18:16.436Z,77.30
2019-06-08T05:21:05.024Z,77.60
2019-06-08T05:23:58.558Z,77.40
2019-06-08T05:26:45.235Z,77.30
2019-06-08T05:29:33.892Z,77.00
2019-06-08T05:32:22.315Z,77.30
2019-06-08T05:35:11.513Z,77.50
2019-06-08T05:38:00.114Z,77.00
2019-06-08T05:40:49.749Z,76.90
2019-06-08T05:43:39.711Z,76.70
2019-06-08T05:46:28.697Z,77.10
2019-06-08T05:49:19.630Z,76.80
2019-06-08T05:52:08.024Z,76.20
2019-06-08T05:54:56.199Z,75.60
2019-06-08T05:57:46.275Z,75.20
2019-06-08T06:00:35.046Z,74.50
2019-06-08T06:03:23.480Z,74.00
2019-06-08T06:06:12.203Z,72.10
2019-06-08T06:09:03.970Z,71.70
2019-06-08T06:11:52.752Z,72.30
2019-06-08T06:14:41.345Z,71.00
2019-06-08T06:17:30.143Z,69.50
2019-06-08T06:20:18.708Z,69.80
2019-06-08T06:23:07.292Z,68.70
2019-06-08T06:25:55.889Z,67.90
2019-06-08T06:28:45.633Z,67.80
2019-06-08T06:31:34.300Z,66.60
2019-06-08T06:34:22.916Z,67.00
2019-06-08T06:37:12.556Z,66.20
2019-06-08T06:40:00.973Z,66.40
2019-06-08T06:42:50.044Z,65.00
2019-06-08T06:45:39.583Z,65.50
2019-06-08T06:48:28.466Z,63.90
2019-06-08T06:53:22.873Z,63.30
2019-06-08T06:58:21.763Z,62.10
2019-06-08T07:01:22.795Z,61.70
2019-06-08T07:08:06.684Z,60.10
2019-06-08T07:10:55.201Z,59.70
2019-06-08T07:13:44.654Z,59.20
2019-06-08T07:16:33.253Z,58.80
2019-06-08T07:19:21.362Z,58.00
2019-06-08T07:22:10.036Z,58.50
2019-06-08T07:24:59.439Z,58.60
2019-06-08T07:27:48.391Z,58.70
2019-06-08T07:30:37.321Z,58.90
2019-06-08T07:33:26.122Z,58.90
2019-06-08T07:36:14.738Z,59.00
2019-06-08T07:39:07.196Z,59.00
2019-06-08T07:41:56.034Z,59.60
2019-06-08T07:44:46.843Z,59.10
2019-06-08T07:47:35.875Z,58.80
2019-06-08T07:50:24.480Z,58.60
2019-06-08T07:53:12.997Z,58.50
2019-06-08T07:56:01.782Z,58.60
2019-06-08T07:58:51.647Z,58.20
2019-06-08T08:01:40.389Z,57.80
2019-06-08T08:04:29.251Z,57.70
2019-06-08T08:07:17.718Z,56.60
2019-06-08T08:10:08.193Z,56.20
2019-06-08T08:12:56.972Z,56.30
2019-06-08T08:15:46.115Z,57.00
2019-06-08T08:18:34.356Z,57.40
2019-06-08T08:21:26.234Z,57.30
2019-06-08T08:24:12.365Z,57.60
2019-06-08T08:27:03.497Z,58.30
2019-06-08T08:29:51.432Z,58.20
2019-06-08T08:32:40.365Z,58.00
2019-06-08T08:35:29.130Z,58.10
2019-06-08T08:38:17.774Z,57.90
2019-06-08T08:41:08.293Z,57.90
2019-06-08T08:43:58.950Z,57.30
2019-06-08T08:46:48.605Z,55.90
2019-06-08T08:49:38.081Z,56.00
2019-06-08T08:52:34.495Z,55.50
2019-06-08T08:55:20.248Z,56.00
2019-06-08T08:58:08.402Z,55.10
2019-06-08T09:01:00.157Z,54.80
2019-06-08T09:03:48.169Z,54.80
2019-06-08T09:06:38.108Z,54.90
2019-06-08T09:09:28.838Z,55.60
2019-06-08T09:12:20.687Z,54.50
2019-06-08T09:15:09.739Z,55.60
2019-06-08T09:18:02.102Z,55.40
2019-06-08T09:20:49.781Z,54.70
2019-06-08T09:23:38.563Z,53.60
2019-06-08T09:26:31.273Z,54.10
2019-06-08T09:29:21.105Z,55.20
2019-06-08T09:32:14.631Z,55.50
2019-06-08T09:35:04.639Z,55.60
2019-06-08T09:37:53.249Z,55.00
2019-06-08T09:40:42.100Z,55.20
2019-06-08T09:43:30.597Z,55.10
2019-06-08T09:46:22.471Z,55.20
2019-06-08T09:49:11.832Z,54.70
2019-06-08T09:52:03.226Z,54.70
2019-06-08T09:54:54.107Z,53.50
2019-06-08T09:57:43.096Z,54.00
2019-06-08T10:00:31.193Z,54.60
2019-06-08T10:03:19.512Z,54.60
2019-06-08T10:06:11.600Z,53.70
2019-06-08T10:08:58.504Z,53.40
2019-06-08T10:11:47.059Z,53.00
2019-06-08T10:14:37.804Z,52.40
2019-06-08T10:17:27.770Z,52.10
2019-06-08T10:20:58.046Z,51.90
2019-06-08T10:24:00.997Z,52.20
2019-06-08T10:26:51.783Z,50.90
2019-06-08T10:29:43.322Z,51.50
2019-06-08T10:32:43.245Z,51.10
2019-06-08T10:35:33.738Z,51.50
2019-06-08T10:38:23.688Z,52.00
2019-06-08T10:42:19.076Z,51.90
2019-06-08T10:44:46.697Z,52.00
2019-06-08T10:47:47.760Z,50.30
2019-06-08T10:50:36.870Z,49.90
2019-06-08T10:53:25.542Z,51.10
2019-06-08T10:56:14.257Z,51.40
2019-06-08T10:59:05.055Z,49.80
2019-06-08T11:01:52.656Z,50.10
2019-06-08T11:04:43.363Z,50.60
2019-06-08T11:07:31.473Z,49.00
2019-06-08T11:10:20.011Z,49.70
2019-06-08T11:13:14.528Z,48.40
2019-06-08T11:16:00.441Z,49.40
2019-06-08T11:18:50.841Z,47.70
2019-06-08T11:21:38.663Z,47.50
2019-06-08T11:24:29.010Z,48.00
2019-06-08T11:27:18.734Z,48.40
2019-06-08T11:30:20.029Z,48.00
2019-06-08T11:33:02.127Z,48.50
2019-06-08T11:35:50.783Z,48.20
2019-06-08T11:38:39.307Z,47.00
2019-06-08T11:41:29.013Z,48.30
2019-06-08T11:44:19.268Z,48.20
2019-06-08T11:47:11.310Z,48.20
2019-06-08T11:49:57.816Z,48.50
2019-06-08T11:52:49.174Z,48.90
2019-06-08T11:55:38.474Z,48.10
2019-06-08T11:58:30.779Z,48.50
2019-06-08T12:01:19.663Z,48.50
2019-06-08T12:04:08.297Z,48.50
2019-06-08T12:06:58.396Z,48.40
2019-06-08T12:09:49.952Z,48.20
2019-06-08T12:12:38.497Z,48.00
2019-06-08T12:15:28.649Z,49.10
2019-06-08T12:18:18.173Z,47.60
2019-06-08T12:21:08.661Z,47.50
2019-06-08T12:23:56.195Z,46.90
2019-06-08T12:26:47.582Z,46.60
2019-06-08T12:29:35.365Z,47.70
2019-06-08T12:32:23.803Z,47.60
2019-06-08T12:35:13.606Z,47.50
2019-06-08T12:38:02.807Z,46.80
2019-06-08T12:40:51.559Z,46.80
2019-06-08T12:43:40.382Z,46.40
2019-06-08T12:46:28.989Z,46.70
2019-06-08T12:49:18.801Z,47.00
2019-06-08T12:52:08.668Z,47.60
2019-06-08T12:55:06.050Z,47.00
2019-06-08T12:57:51.735Z,46.50
2019-06-08T13:00:39.666Z,46.50
2019-06-08T13:03:29.883Z,46.80
2019-06-08T13:06:20.022Z,46.20
2019-06-08T13:09:11.291Z,47.10
2019-06-08T13:11:59.463Z,46.90
2019-06-08T13:14:50.530Z,46.30
2019-06-08T13:17:41.312Z,46.00
2019-06-08T13:20:29.953Z,44.80
2019-06-08T13:23:21.150Z,44.20
2019-06-08T13:26:10.890Z,44.00
2019-06-08T13:29:00.526Z,44.40
2019-06-08T13:31:49.676Z,43.50
2019-06-08T13:34:38.769Z,43.90
2019-06-08T13:37:27.641Z,44.20
2019-06-08T13:40:20.035Z,43.50
2019-06-08T13:43:08.294Z,44.50
2019-06-08T13:45:58.348Z,44.40
2019-06-08T13:48:48.198Z,44.60
2019-06-08T13:51:38.286Z,44.20
2019-06-08T13:54:30.880Z,44.40
2019-06-08T13:57:20.068Z,44.80
2019-06-08T14:00:08.965Z,43.70
2019-06-08T14:02:57.843Z,43.50
2019-06-08T14:05:47.953Z,41.80
2019-06-08T14:08:38.608Z,41.90
2019-06-08T14:11:28.087Z,42.50
2019-06-08T14:14:17.670Z,42.30
2019-06-08T14:17:08.487Z,42.00
2019-06-08T14:19:59.329Z,41.60
2019-06-08T14:22:50.377Z,41.70
2019-06-08T14:25:49.668Z,41.60
2019-06-08T14:28:28.958Z,41.50
2019-06-08T14:31:19.712Z,41.80
2019-06-08T14:34:10.000Z,41.70
2019-06-08T14:36:59.223Z,41.70
2019-06-08T14:39:48.741Z,43.20
2019-06-08T14:42:38.399Z,43.50
2019-06-08T14:45:30.972Z,42.90
2019-06-08T14:48:18.950Z,42.00
2019-06-08T14:51:08.779Z,40.50
2019-06-08T14:53:58.259Z,40.00
2019-06-08T14:56:47.180Z,41.00
2019-06-08T14:59:35.660Z,41.70
2019-06-08T15:02:25.996Z,41.20
2019-06-08T15:05:14.702Z,40.90
2019-06-08T15:08:03.288Z,41.50
2019-06-08T15:10:52.021Z,42.70
2019-06-08T15:13:40.770Z,44.00
2019-06-08T15:16:32.442Z,44.90
2019-06-08T15:19:20.250Z,45.70
2019-06-08T15:22:11.297Z,45.60
2019-06-08T15:24:59.345Z,45.90
2019-06-08T15:27:48.040Z,46.40
2019-06-08T15:30:38.083Z,47.30
2019-06-08T15:33:32.049Z,47.90
2019-06-08T15:36:20.258Z,48.20
2019-06-08T15:39:07.976Z,48.40
2019-06-08T15:41:59.921Z,48.20
2019-06-08T15:44:47.975Z,48.30
2019-06-08T15:47:40.533Z,48.10
2019-06-08T15:50:26.701Z,48.30
2019-06-08T15:53:15.208Z,48.30
2019-06-08T15:56:03.892Z,48.30
2019-06-08T15:58:54.103Z,48.40
2019-06-08T16:01:42.935Z,48.20
2019-06-08T16:04:31.815Z,48.30
2019-06-08T16:07:20.923Z,48.50
2019-06-08T16:10:09.578Z,48.60
2019-06-08T16:12:58.256Z,48.90
2019-06-08T16:15:46.898Z,48.70
2019-06-08T16:18:36.122Z,49.00
2019-06-08T16:21:25.328Z,48.80
2019-06-08T16:24:16.397Z,49.10
2019-06-08T16:27:05.366Z,49.10
2019-06-08T16:29:54.128Z,49.30
2019-06-08T16:32:42.578Z,49.50
2019-06-08T16:35:35.639Z,49.90
2019-06-08T16:38:24.200Z,51.60
2019-06-08T16:41:13.022Z,53.00
2019-06-08T16:44:01.892Z,54.00
2019-06-08T16:46:50.939Z,55.00
2019-06-08T16:49:39.763Z,56.90
2019-06-08T16:52:28.476Z,58.80
2019-06-08T16:55:16.955Z,59.50
2019-06-08T16:58:05.629Z,60.10
2019-06-08T17:00:54.437Z,60.40
2019-06-08T17:03:43.186Z,60.70
2019-06-08T17:06:31.593Z,60.60
2019-06-08T17:09:20.357Z,60.40
2019-06-08T17:12:09.169Z,60.60
2019-06-08T17:14:57.847Z,60.50
2019-06-08T17:17:46.685Z,60.50
2019-06-08T17:20:36.285Z,60.30
2019-06-08T17:23:24.804Z,60.20
2019-06-08T17:26:13.686Z,60.30
2019-06-08T17:29:02.197Z,61.50
2019-06-08T17:31:50.946Z,61.80
2019-06-08T17:34:40.267Z,61.80
2019-06-08T17:37:29.054Z,62.20
2019-06-08T17:40:17.689Z,62.20
2019-06-08T17:43:06.736Z,62.30
2019-06-08T17:45:55.028Z,62.30
2019-06-08T17:48:43.248Z,62.20
2019-06-08T17:51:32.793Z,62.00
2019-06-08T17:54:21.749Z,62.00
2019-06-08T17:57:10.433Z,62.30
2019-06-08T17:59:58.882Z,63.30
2019-06-08T18:02:48.387Z,63.00
2019-06-08T18:05:41.947Z,62.90
2019-06-08T18:08:28.211Z,63.00
2019-06-08T18:11:17.375Z,63.60
2019-06-08T18:14:13.636Z,64.60
2019-06-08T18:17:00.666Z,65.60
2019-06-08T18:19:52.782Z,65.60
2019-06-08T18:22:44.413Z,65.60
2019-06-08T18:25:34.429Z,65.80
2019-06-08T18:28:24.960Z,65.30
2019-06-08T18:31:15.382Z,65.60
2019-06-08T18:34:08.410Z,65.20
2019-06-08T18:36:59.817Z,65.00
2019-06-08T18:39:53.889Z,65.60
2019-06-08T18:42:48.461Z,66.00
2019-06-08T18:45:42.397Z,66.10
2019-06-08T18:48:30.190Z,66.10
2019-06-08T18:51:19.676Z,66.30
2019-06-08T18:54:14.460Z,66.50
2019-06-08T18:56:58.029Z,66.00
2019-06-08T18:59:50.950Z,65.40
2019-06-08T19:02:39.941Z,65.50
2019-06-08T19:05:27.943Z,64.30
2019-06-08T19:08:17.958Z,64.10
2019-06-08T19:11:08.128Z,64.20
2019-06-08T19:13:58.049Z,64.10
2019-06-08T19:16:54.203Z,64.80
2019-06-08T19:19:41.205Z,65.20
2019-06-08T19:22:29.965Z,65.20
2019-06-08T19:25:17.677Z,65.10
2019-06-08T19:28:07.798Z,65.10
2019-06-08T19:30:58.310Z,65.90
2019-06-08T19:33:51.319Z,66.90
2019-06-08T19:36:39.923Z,65.90
2019-06-08T19:39:28.289Z,66.00
2019-06-08T19:42:17.718Z,66.10
2019-06-08T19:45:08.585Z,66.10
2019-06-08T19:47:57.777Z,66.40
2019-06-08T19:50:47.306Z,66.40
2019-06-08T19:53:42.230Z,66.60
2019-06-08T19:56:28.164Z,66.80
2019-06-08T19:59:18.266Z,66.90
2019-06-08T20:02:08.678Z,67.30
2019-06-08T20:04:57.032Z,68.00
2019-06-08T20:07:45.353Z,68.50
2019-06-08T20:10:33.973Z,69.00
2019-06-08T20:13:22.642Z,69.70
2019-06-08T20:16:11.445Z,70.50
2019-06-08T20:19:00.149Z,71.70
2019-06-08T20:21:51.281Z,72.20
2019-06-08T20:24:38.798Z,72.50
2019-06-08T20:27:27.770Z,72.70
2019-06-08T20:30:17.476Z,73.10
2019-06-08T20:33:08.174Z,73.50
2019-06-08T20:35:58.425Z,73.50
2019-06-08T20:38:47.459Z,73.60
2019-06-08T20:41:37.636Z,74.20
2019-06-08T20:44:30.176Z,74.50
2019-06-08T20:47:20.596Z,74.70
2019-06-08T20:50:08.389Z,75.10
2019-06-08T20:52:57.857Z,75.30
2019-06-08T20:55:49.633Z,75.50
2019-06-08T20:58:38.172Z,75.70
2019-06-08T21:01:27.094Z,75.90
2019-06-08T21:04:18.080Z,75.80
2019-06-08T21:07:07.986Z,75.60
2019-06-08T21:09:58.139Z,75.80
2019-06-08T21:12:49.574Z,76.10
2019-06-08T21:15:38.228Z,76.50
2019-06-08T21:18:28.297Z,76.80
2019-06-08T21:21:17.583Z,77.20
2019-06-08T21:24:09.485Z,77.60
2019-06-08T21:27:02.956Z,78.00
2019-06-08T21:29:59.757Z,78.60
2019-06-08T21:32:42.791Z,79.10
2019-06-08T21:35:31.085Z,80.00
2019-06-08T21:38:23.593Z,80.30
2019-06-08T21:41:09.763Z,80.20
2019-06-08T21:44:01.663Z,80.80
2019-06-08T21:46:51.079Z,81.80
2019-06-08T21:49:38.626Z,82.70
2019-06-08T21:52:28.109Z,82.80
2019-06-08T21:55:17.771Z,83.30
2019-06-08T21:58:08.010Z,83.40
2019-06-08T22:00:59.164Z,84.10
2019-06-08T22:03:47.419Z,84.60
2019-06-08T22:06:37.337Z,84.40
2019-06-08T22:09:28.485Z,85.10
2019-06-08T22:12:17.381Z,85.80
2019-06-08T22:15:07.798Z,86.20
2019-06-08T22:17:59.682Z,86.20
2019-06-08T22:20:47.862Z,86.50
2019-06-08T22:23:36.864Z,86.60
2019-06-08T22:26:27.916Z,86.90
2019-06-08T22:29:18.116Z,87.00
2019-06-08T22:32:09.683Z,87.50
2019-06-08T22:35:00.143Z,87.80
2019-06-08T22:37:51.891Z,88.10
2019-06-08T22:40:47.906Z,88.90
2019-06-08T22:43:37.467Z,88.80
2019-06-08T22:46:26.483Z,89.20
2019-06-08T22:49:18.495Z,89.10
2019-06-08T22:52:08.231Z,90.00
2019-06-08T22:55:02.088Z,90.20
2019-06-08T22:57:47.915Z,90.30
2019-06-08T23:00:51.234Z,90.60
2019-06-08T23:03:27.145Z,90.60
2019-06-08T23:06:17.702Z,90.50
2019-06-08T23:09:08.681Z,90.40
2019-06-08T23:12:01.389Z,90.70
2019-06-08T23:14:47.125Z,90.50
2019-06-08T23:17:38.337Z,90.60
2019-06-08T23:20:27.602Z,90.90
2019-06-08T23:23:17.811Z,91.20
2019-06-08T23:26:10.210Z,91.30
2019-06-08T23:28:56.134Z,91.40
2019-06-08T23:31:45.055Z,91.30
2019-06-08T23:34:33.593Z,91.20
2019-06-08T23:37:22.325Z,91.40
2019-06-08T23:40:11.748Z,91.20
2019-06-08T23:43:01.590Z,91.30
2019-06-08T23:45:51.185Z,91.40
2019-06-08T23:48:39.889Z,91.20
2019-06-08T23:51:28.525Z,91.00
2019-06-08T23:54:18.370Z,91.00
2019-06-08T23:57:09.623Z,91.00
2019-06-08T23:59:59.479Z,90.80
